KMTN

Martin State Airport

Baltimore, Maryland, USA
METAR KMTN 210512Z AUTO 07005KT 10SM BKN042 OVC065 23/21 A3011 RMK AO2
Observed Flight Rules
Aug-21 @ 05:12 UTC (9 hours ago) Visual Flight Rules
Wind Visibility Clouds
70° at 5 knots 10 miles
  • Broken at 4,200' AGL
  • Overcast at 6,500' AGL
Temperatures Readings
Current 23°C / 73°F
Dewpoint 21°C / 70°F
Humidity 89%
Altimeter 30.11" Hg
Pressure 1020 hPa
Elevation 7
METAR KMTN 210512Z AUTO 07005KT 10SM BKN042 OVC065 23/21 A3011 RMK AO2
Observed Flight Rules
Aug-21 @ 05:12 UTC
(9 hours ago)
VFR
Wind Visibility
70° at 5 knots 10 miles
Clouds
  • Broken at 4,200' AGL
  • Overcast at 6,500' AGL
Temperature Dewpoint
23°C / 73°F 21°C / 70°F
Humidity Altimeter Pressure
89% 30.11" Hg 1020 hPa